Time;durP1;ratioP1;P1;durP2;ratioP2;P2;SDS_P1;SDS_P2;PMS_P1;PMS_P2;Temp;Humidity;BMP_temperature;BMP_pressure;BME280_temperature;BME280_humidity;BME280_pressure;Samples;Min_cycle;Max_cycle;Signal;HPM_P1;HPM_P2
2022/01/20 00:00:14;;;;;;;33.45;5.32;;;;;;;;;;5017357;28;20057;-69
2022/01/20 00:02:37;;;;;;;37.78;4.35;;;;;;;;;;5003992;28;20506;-69
2022/01/20 00:05:11;;;;;;;28.00;3.40;;;;;;;;;;5020271;28;20045;-69
2022/01/20 00:08:08;;;;;;;27.88;3.63;;;;;;;;;;5015152;28;20048;-69
2022/01/20 00:27:09;;;;;;;31.20;3.92;;;;;;;;;;5009097;28;20050;-69
2022/01/20 00:30:06;;;;;;;28.65;3.75;;;;;;;;;;5019217;28;20053;-69
2022/01/20 00:35:23;;;;;;;24.55;3.38;;;;;;;;;;4986344;28;20408;-69
2022/01/20 00:37:49;;;;;;;32.20;3.90;;;;;;;;;;5007980;28;20414;-69
2022/01/20 00:40:19;;;;;;;21.42;3.58;;;;;;;;;;5022404;28;20049;-69
2022/01/20 00:42:45;;;;;;;23.15;3.72;;;;;;;;;;5017235;28;20058;-69
2022/01/20 00:45:12;;;;;;;15.25;2.83;;;;;;;;;;5023030;28;20053;-68
2022/01/20 00:47:39;;;;;;;27.48;3.15;;;;;;;;;;5027987;28;20053;-69
2022/01/20 00:50:07;;;;;;;24.38;3.35;;;;;;;;;;5009136;28;20576;-69
2022/01/20 00:52:33;;;;;;;25.42;3.17;;;;;;;;;;5022710;28;20056;-69
2022/01/20 00:55:00;;;;;;;32.75;3.75;;;;;;;;;;5013916;28;20045;-69
2022/01/20 00:57:26;;;;;;;23.70;3.10;;;;;;;;;;5030612;28;20478;-69
2022/01/20 00:59:52;;;;;;;23.40;3.42;;;;;;;;;;5010293;28;20060;-69
2022/01/20 01:02:18;;;;;;;25.65;3.80;;;;;;;;;;5028790;28;20699;-69
2022/01/20 01:04:45;;;;;;;25.65;3.65;;;;;;;;;;5015052;28;20052;-69
2022/01/20 01:09:56;;;;;;;21.13;2.22;;;;;;;;;;5019198;28;21068;-69
2022/01/20 01:12:35;;;;;;;15.23;2.65;;;;;;;;;;5016412;28;20052;-69
2022/01/20 01:15:06;;;;;;;21.02;3.72;;;;;;;;;;5015503;28;20503;-69
2022/01/20 01:20:20;;;;;;;17.45;3.15;;;;;;;;;;5024197;28;20049;-69
2022/01/20 01:22:47;;;;;;;24.30;3.13;;;;;;;;;;5024210;28;20061;-69
2022/01/20 01:25:15;;;;;;;19.00;3.15;;;;;;;;;;4984003;28;20084;-70
2022/01/20 01:27:43;;;;;;;28.70;3.07;;;;;;;;;;5007068;28;20045;-70
2022/01/20 01:30:31;;;;;;;22.38;2.95;;;;;;;;;;5010888;28;20347;-70
2022/01/20 01:32:57;;;;;;;19.73;3.08;;;;;;;;;;5014467;28;20049;-70
2022/01/20 01:35:24;;;;;;;30.17;2.92;;;;;;;;;;5014492;28;20056;-69
2022/01/20 01:40:33;;;;;;;21.25;2.30;;;;;;;;;;5021833;28;20510;-70
2022/01/20 01:43:03;;;;;;;21.75;2.92;;;;;;;;;;5022036;28;20053;-70
2022/01/20 01:45:33;;;;;;;20.77;2.63;;;;;;;;;;5022550;28;20060;-70
2022/01/20 01:47:59;;;;;;;18.02;2.33;;;;;;;;;;5005616;28;20094;-70
2022/01/20 01:50:26;;;;;;;18.13;2.40;;;;;;;;;;5028029;28;20057;-70
2022/01/20 01:52:53;;;;;;;17.45;1.98;;;;;;;;;;5011196;28;20044;-69
2022/01/20 01:55:20;;;;;;;18.05;2.40;;;;;;;;;;5026499;28;20053;-70
2022/01/20 01:57:47;;;;;;;21.20;2.22;;;;;;;;;;5020857;28;20425;-69
2022/01/20 02:00:16;;;;;;;20.27;2.30;;;;;;;;;;5018015;28;20040;-69
2022/01/20 02:02:43;;;;;;;15.88;1.88;;;;;;;;;;5018608;28;20103;-69
2022/01/20 02:05:12;;;;;;;17.27;2.38;;;;;;;;;;5023462;28;20045;-68
2022/01/20 02:18:58;;;;;;;13.77;1.75;;;;;;;;;;5015682;28;20064;-69
2022/01/20 02:21:24;;;;;;;15.93;2.65;;;;;;;;;;5020713;28;20297;-69
2022/01/20 02:23:50;;;;;;;17.60;2.17;;;;;;;;;;5017605;28;20454;-69
2022/01/20 02:26:16;;;;;;;19.63;2.17;;;;;;;;;;5026770;28;20423;-69
2022/01/20 02:28:44;;;;;;;20.80;2.85;;;;;;;;;;5002251;28;20061;-69
2022/01/20 02:31:10;;;;;;;17.73;2.60;;;;;;;;;;5002490;28;20425;-69
2022/01/20 02:33:37;;;;;;;15.60;3.03;;;;;;;;;;5017596;28;20145;-69
2022/01/20 02:36:08;;;;;;;15.23;1.73;;;;;;;;;;5025496;28;20049;-68
2022/01/20 02:38:42;;;;;;;9.38;1.50;;;;;;;;;;5011259;28;20531;-68
2022/01/20 02:46:39;;;;;;;20.23;2.38;;;;;;;;;;5010271;28;20751;-69
2022/01/20 02:49:07;;;;;;;21.48;2.60;;;;;;;;;;5021064;28;20054;-69
2022/01/20 02:51:34;;;;;;;14.93;1.90;;;;;;;;;;5014583;28;20086;-69
2022/01/20 02:54:01;;;;;;;15.57;1.73;;;;;;;;;;5019378;28;20072;-70
2022/01/20 02:56:27;;;;;;;17.27;2.33;;;;;;;;;;5006319;28;20060;-69
2022/01/20 02:58:54;;;;;;;16.70;1.65;;;;;;;;;;5016806;28;20061;-69
2022/01/20 03:01:20;;;;;;;18.13;1.77;;;;;;;;;;5019924;28;20045;-68
2022/01/20 03:03:47;;;;;;;15.13;2.55;;;;;;;;;;5015022;28;20062;-69
2022/01/20 03:06:13;;;;;;;16.80;1.88;;;;;;;;;;5004598;28;20049;-69
2022/01/20 03:08:39;;;;;;;15.13;1.88;;;;;;;;;;5007607;28;20060;-69
2022/01/20 03:11:06;;;;;;;17.77;2.40;;;;;;;;;;5014585;28;20720;-68
2022/01/20 03:13:32;;;;;;;13.95;1.52;;;;;;;;;;4997641;28;20082;-69
2022/01/20 03:15:58;;;;;;;16.33;2.05;;;;;;;;;;5009991;28;20053;-69
2022/01/20 03:18:25;;;;;;;18.90;1.90;;;;;;;;;;5022556;28;20049;-69
2022/01/20 03:20:51;;;;;;;17.02;2.42;;;;;;;;;;5017908;28;20048;-69
2022/01/20 03:23:17;;;;;;;16.75;2.38;;;;;;;;;;5019714;28;20049;-69
2022/01/20 03:25:44;;;;;;;15.85;1.67;;;;;;;;;;5024070;28;20468;-69
2022/01/20 03:28:10;;;;;;;12.13;2.17;;;;;;;;;;5023246;28;20045;-68
2022/01/20 03:30:37;;;;;;;14.00;1.52;;;;;;;;;;5019967;28;20048;-69
2022/01/20 03:33:03;;;;;;;18.58;1.73;;;;;;;;;;5021713;28;20078;-69
2022/01/20 03:35:30;;;;;;;14.70;2.25;;;;;;;;;;5024334;28;20250;-68
2022/01/20 03:37:56;;;;;;;22.45;2.42;;;;;;;;;;5009649;28;20056;-69
2022/01/20 03:40:23;;;;;;;15.57;1.58;;;;;;;;;;5024516;28;20049;-69
2022/01/20 03:42:49;;;;;;;13.55;1.42;;;;;;;;;;5016372;28;20072;-68
2022/01/20 03:45:16;;;;;;;15.35;2.58;;;;;;;;;;5022378;28;20430;-69
2022/01/20 03:47:42;;;;;;;6.82;1.33;;;;;;;;;;5027971;28;20533;-68
2022/01/20 03:50:59;;;;;;;16.25;1.85;;;;;;;;;;5009074;28;20049;-69
2022/01/20 03:52:56;;;;;;;13.35;1.85;;;;;;;;;;5023100;28;20212;-68
2022/01/20 03:55:22;;;;;;;8.73;1.60;;;;;;;;;;5012324;28;20150;-68
2022/01/20 03:57:49;;;;;;;11.23;1.60;;;;;;;;;;5025782;28;20061;-68
2022/01/20 04:00:15;;;;;;;22.00;2.13;;;;;;;;;;5014217;28;20049;-68
2022/01/20 04:02:41;;;;;;;9.73;1.83;;;;;;;;;;5024448;28;20084;-68
2022/01/20 04:05:08;;;;;;;11.05;1.60;;;;;;;;;;5016339;28;20544;-68
2022/01/20 04:07:34;;;;;;;7.60;1.17;;;;;;;;;;5017175;28;20430;-68
2022/01/20 04:10:01;;;;;;;11.18;1.85;;;;;;;;;;5019984;28;20057;-69
2022/01/20 04:12:27;;;;;;;7.45;1.65;;;;;;;;;;5016674;28;20569;-68
2022/01/20 04:14:54;;;;;;;6.55;1.40;;;;;;;;;;5022272;28;20060;-68
2022/01/20 04:17:21;;;;;;;11.90;1.67;;;;;;;;;;5013631;28;20060;-68
2022/01/20 04:19:47;;;;;;;12.05;1.58;;;;;;;;;;5015357;28;20084;-68
2022/01/20 04:22:14;;;;;;;15.40;1.70;;;;;;;;;;5024627;28;20045;-68
2022/01/20 04:24:46;;;;;;;13.43;1.50;;;;;;;;;;5013492;28;20659;-68
2022/01/20 04:27:12;;;;;;;13.13;1.50;;;;;;;;;;5025940;28;20057;-68
2022/01/20 04:29:39;;;;;;;15.02;2.10;;;;;;;;;;5013529;28;20060;-68
2022/01/20 04:32:05;;;;;;;13.32;1.90;;;;;;;;;;5007598;28;20040;-68
2022/01/20 04:34:32;;;;;;;20.95;2.10;;;;;;;;;;5011907;28;20124;-68
2022/01/20 04:37:01;;;;;;;16.05;1.85;;;;;;;;;;5021706;28;20048;-68
2022/01/20 04:39:31;;;;;;;16.63;2.03;;;;;;;;;;5022170;28;20049;-68
2022/01/20 04:41:57;;;;;;;11.43;1.40;;;;;;;;;;5017094;28;20430;-68
2022/01/20 04:47:15;;;;;;;18.55;1.75;;;;;;;;;;5006629;28;20056;-68
2022/01/20 04:58:01;;;;;;;13.10;1.50;;;;;;;;;;5017549;28;20442;-68
2022/01/20 05:00:27;;;;;;;13.10;2.00;;;;;;;;;;5017833;28;20057;-68
2022/01/20 05:02:54;;;;;;;15.50;2.28;;;;;;;;;;4999854;28;20049;-68
2022/01/20 05:05:21;;;;;;;17.23;2.15;;;;;;;;;;5013196;28;20064;-68
2022/01/20 05:07:48;;;;;;;13.98;2.10;;;;;;;;;;5023813;28;20175;-68
2022/01/20 05:10:14;;;;;;;17.98;2.03;;;;;;;;;;5013548;28;20055;-68
2022/01/20 05:13:22;;;;;;;17.08;2.33;;;;;;;;;;5022614;28;20053;-69
2022/01/20 05:15:33;;;;;;;16.85;2.10;;;;;;;;;;5007112;28;20045;-68
2022/01/20 05:18:00;;;;;;;13.63;2.05;;;;;;;;;;5022740;28;20049;-68
2022/01/20 05:20:26;;;;;;;14.52;2.15;;;;;;;;;;5021628;28;20061;-68
2022/01/20 05:22:52;;;;;;;16.10;2.50;;;;;;;;;;5015145;28;20060;-68
2022/01/20 05:25:19;;;;;;;12.95;1.63;;;;;;;;;;5021795;28;20042;-68
2022/01/20 05:27:45;;;;;;;9.25;1.33;;;;;;;;;;5009194;28;20059;-68
2022/01/20 05:30:12;;;;;;;13.82;1.40;;;;;;;;;;5018348;28;20131;-68
2022/01/20 05:32:38;;;;;;;15.38;1.50;;;;;;;;;;5009980;28;21693;-68
2022/01/20 05:35:05;;;;;;;13.85;2.20;;;;;;;;;;5022331;28;20048;-68
2022/01/20 05:37:32;;;;;;;13.88;1.60;;;;;;;;;;5019499;28;20396;-68
2022/01/20 05:39:58;;;;;;;16.13;1.65;;;;;;;;;;5013847;28;20141;-68
2022/01/20 05:42:24;;;;;;;18.50;2.17;;;;;;;;;;5015115;28;20046;-68
2022/01/20 05:44:52;;;;;;;18.08;2.10;;;;;;;;;;4999139;28;20037;-68
2022/01/20 05:47:26;;;;;;;20.27;2.80;;;;;;;;;;5021292;28;20053;-68
2022/01/20 05:49:52;;;;;;;12.80;1.80;;;;;;;;;;5016819;28;20053;-68
2022/01/20 05:52:19;;;;;;;16.90;2.53;;;;;;;;;;5017896;28;20045;-68
2022/01/20 05:54:46;;;;;;;12.80;1.70;;;;;;;;;;5019623;28;20045;-68
2022/01/20 05:57:12;;;;;;;15.43;2.33;;;;;;;;;;5007005;28;20606;-68
2022/01/20 05:59:38;;;;;;;17.55;2.33;;;;;;;;;;5030944;28;20043;-68
2022/01/20 06:02:33;;;;;;;15.20;2.15;;;;;;;;;;5010154;28;20869;-68
2022/01/20 06:05:00;;;;;;;11.68;1.60;;;;;;;;;;5022215;28;20056;-68
2022/01/20 06:07:26;;;;;;;14.52;2.17;;;;;;;;;;5001834;28;20479;-68
2022/01/20 06:09:52;;;;;;;12.60;1.80;;;;;;;;;;5026153;28;20517;-68
2022/01/20 06:12:19;;;;;;;19.83;1.90;;;;;;;;;;5020062;28;20045;-68
2022/01/20 06:14:45;;;;;;;19.63;2.20;;;;;;;;;;5015300;28;20061;-68
2022/01/20 06:17:12;;;;;;;22.17;2.35;;;;;;;;;;5020383;28;20060;-69
2022/01/20 06:19:39;;;;;;;16.02;2.17;;;;;;;;;;5014502;28;20838;-68
2022/01/20 06:22:05;;;;;;;17.33;1.80;;;;;;;;;;5035166;28;20045;-69
2022/01/20 06:24:31;;;;;;;26.23;4.20;;;;;;;;;;5011445;28;20045;-69
2022/01/20 06:26:58;;;;;;;22.75;2.80;;;;;;;;;;5014919;28;20058;-69
2022/01/20 06:29:25;;;;;;;20.27;2.25;;;;;;;;;;5021717;28;20049;-69
2022/01/20 06:31:51;;;;;;;21.00;2.83;;;;;;;;;;4998696;28;20053;-68
2022/01/20 06:34:18;;;;;;;20.42;2.53;;;;;;;;;;5018662;28;20052;-68
2022/01/20 06:36:44;;;;;;;21.88;2.65;;;;;;;;;;5010685;28;20065;-69
2022/01/20 06:39:11;;;;;;;14.60;2.13;;;;;;;;;;5009692;28;20053;-68
2022/01/20 06:41:37;;;;;;;13.25;1.92;;;;;;;;;;5014036;28;20434;-68
2022/01/20 06:44:04;;;;;;;10.48;1.65;;;;;;;;;;5018038;28;20061;-68
2022/01/20 06:46:31;;;;;;;28.45;2.58;;;;;;;;;;5022927;28;20141;-68
2022/01/20 06:48:57;;;;;;;15.68;2.35;;;;;;;;;;5009445;28;20465;-71
2022/01/20 06:51:24;;;;;;;16.42;2.47;;;;;;;;;;5025084;28;20053;-69
2022/01/20 06:53:50;;;;;;;18.52;2.42;;;;;;;;;;5008063;28;20116;-68
2022/01/20 06:56:16;;;;;;;8.85;1.30;;;;;;;;;;5020579;28;20605;-68
2022/01/20 06:59:03;;;;;;;16.80;1.80;;;;;;;;;;5011994;28;20049;-69
2022/01/20 07:01:29;;;;;;;15.02;2.33;;;;;;;;;;5021789;28;20786;-68
2022/01/20 07:03:56;;;;;;;10.57;1.70;;;;;;;;;;5021175;28;20447;-68
2022/01/20 07:06:23;;;;;;;11.98;1.40;;;;;;;;;;5013544;28;21204;-69
2022/01/20 07:08:54;;;;;;;8.30;1.80;;;;;;;;;;5018435;28;20052;-69
2022/01/20 07:11:20;;;;;;;12.40;1.63;;;;;;;;;;5018983;28;20470;-68
2022/01/20 07:13:46;;;;;;;6.85;1.05;;;;;;;;;;5025023;28;20045;-68
2022/01/20 07:16:13;;;;;;;11.32;1.60;;;;;;;;;;5018579;28;20531;-69
2022/01/20 07:18:39;;;;;;;9.25;1.30;;;;;;;;;;5021229;28;20443;-68
2022/01/20 07:21:05;;;;;;;8.15;1.10;;;;;;;;;;5017756;28;20245;-69
2022/01/20 07:23:31;;;;;;;12.50;1.48;;;;;;;;;;5013932;28;20049;-69
2022/01/20 07:25:58;;;;;;;10.60;1.48;;;;;;;;;;5021879;28;20502;-69
2022/01/20 07:28:24;;;;;;;9.15;1.73;;;;;;;;;;5011125;28;20349;-69
2022/01/20 07:30:50;;;;;;;13.45;1.45;;;;;;;;;;5019835;28;20052;-68
2022/01/20 07:33:19;;;;;;;9.15;1.45;;;;;;;;;;5010080;28;20054;-68
2022/01/20 07:35:45;;;;;;;;;;;;;;;;;;5018377;28;20521;-69
2022/01/20 07:38:12;;;;;;;15.77;1.65;;;;;;;;;;5017278;28;19932;-69
2022/01/20 07:40:38;;;;;;;14.23;1.60;;;;;;;;;;5010506;28;20041;-68
2022/01/20 07:43:05;;;;;;;9.70;2.20;;;;;;;;;;5021956;28;20504;-69
2022/01/20 07:45:31;;;;;;;10.43;2.03;;;;;;;;;;5012292;28;20291;-69
2022/01/20 07:47:58;;;;;;;9.93;1.98;;;;;;;;;;5016932;28;20059;-68
2022/01/20 07:50:24;;;;;;;13.20;1.90;;;;;;;;;;5010321;28;20049;-69
2022/01/20 07:52:50;;;;;;;13.15;1.38;;;;;;;;;;5020652;28;20533;-68
2022/01/20 07:55:17;;;;;;;19.95;2.05;;;;;;;;;;5023099;28;20042;-68
2022/01/20 07:57:43;;;;;;;15.68;2.17;;;;;;;;;;5019050;28;20055;-68
2022/01/20 08:00:10;;;;;;;17.63;1.88;;;;;;;;;;5023807;28;20392;-69
2022/01/20 08:02:36;;;;;;;16.38;1.83;;;;;;;;;;5010973;28;20497;-69
2022/01/20 08:05:04;;;;;;;8.18;1.30;;;;;;;;;;5032854;28;20049;-69
2022/01/20 08:07:31;;;;;;;13.90;1.80;;;;;;;;;;5024988;28;20049;-68
2022/01/20 08:09:58;;;;;;;12.13;1.85;;;;;;;;;;5012415;28;20077;-69
2022/01/20 08:12:26;;;;;;;18.83;1.95;;;;;;;;;;5011974;28;20047;-69
2022/01/20 08:14:52;;;;;;;17.15;1.83;;;;;;;;;;5013381;28;20297;-69
2022/01/20 08:17:19;;;;;;;14.77;2.13;;;;;;;;;;5031364;28;20125;-69
2022/01/20 08:19:45;;;;;;;17.25;2.05;;;;;;;;;;5002185;28;20060;-68
2022/01/20 08:22:12;;;;;;;19.77;2.15;;;;;;;;;;5027816;28;20502;-69
2022/01/20 08:24:58;;;;;;;15.95;2.33;;;;;;;;;;5007150;28;20053;-69
2022/01/20 08:27:25;;;;;;;15.80;1.80;;;;;;;;;;5026483;28;20054;-69
2022/01/20 08:29:51;;;;;;;16.83;1.48;;;;;;;;;;4996768;28;20053;-69
2022/01/20 08:32:18;;;;;;;9.68;1.67;;;;;;;;;;5001324;28;20140;-68
2022/01/20 08:34:44;;;;;;;13.15;2.00;;;;;;;;;;5026415;28;20427;-69
2022/01/20 08:37:12;;;;;;;13.13;2.22;;;;;;;;;;5019323;28;20051;-69
2022/01/20 08:39:40;;;;;;;13.30;1.58;;;;;;;;;;5028638;28;20402;-69
2022/01/20 08:42:06;;;;;;;25.92;3.58;;;;;;;;;;5017509;28;20049;-70
2022/01/20 08:44:33;;;;;;;13.80;2.05;;;;;;;;;;5014711;28;20056;-69
2022/01/20 08:47:02;;;;;;;21.75;2.95;;;;;;;;;;5029142;28;20490;-69
2022/01/20 08:49:29;;;;;;;13.65;2.17;;;;;;;;;;5018220;28;20074;-69
2022/01/20 08:51:56;;;;;;;15.73;1.75;;;;;;;;;;5026633;28;20104;-69
2022/01/20 08:54:22;;;;;;;12.98;1.60;;;;;;;;;;5018695;28;20052;-69
2022/01/20 08:56:50;;;;;;;9.15;1.48;;;;;;;;;;5021295;28;20045;-69
2022/01/20 08:59:16;;;;;;;15.50;2.28;;;;;;;;;;5004823;28;20046;-69
2022/01/20 09:01:43;;;;;;;20.25;1.80;;;;;;;;;;5018474;28;20049;-69
2022/01/20 09:04:09;;;;;;;21.83;1.85;;;;;;;;;;5026775;28;20410;-69
2022/01/20 09:06:36;;;;;;;15.98;2.45;;;;;;;;;;5016703;28;20049;-69
2022/01/20 09:09:02;;;;;;;11.75;1.85;;;;;;;;;;5027753;28;20061;-69
2022/01/20 09:11:36;;;;;;;16.13;1.95;;;;;;;;;;5006462;28;20064;-69
2022/01/20 09:16:48;;;;;;;11.30;1.50;;;;;;;;;;5021943;28;20045;-69
2022/01/20 09:19:15;;;;;;;15.90;2.10;;;;;;;;;;5019081;28;20065;-69
2022/01/20 09:21:42;;;;;;;14.20;1.75;;;;;;;;;;5009536;28;20144;-69
2022/01/20 09:24:09;;;;;;;14.77;2.33;;;;;;;;;;4991276;28;20061;-70
2022/01/20 09:26:35;;;;;;;9.23;1.52;;;;;;;;;;5013348;28;20064;-69
2022/01/20 09:29:02;;;;;;;8.40;1.55;;;;;;;;;;5008417;28;20058;-69
2022/01/20 09:31:30;;;;;;;13.43;1.73;;;;;;;;;;5022049;28;20053;-69
2022/01/20 09:33:57;;;;;;;15.52;1.70;;;;;;;;;;5021472;28;20052;-70
2022/01/20 09:36:23;;;;;;;14.75;2.17;;;;;;;;;;5026364;28;20073;-70
2022/01/20 09:38:50;;;;;;;15.18;1.85;;;;;;;;;;5016766;28;20080;-69
2022/01/20 09:41:16;;;;;;;14.18;1.77;;;;;;;;;;5007081;28;20061;-69
2022/01/20 09:43:42;;;;;;;12.15;1.58;;;;;;;;;;5015433;28;20065;-69
2022/01/20 09:46:08;;;;;;;15.50;2.03;;;;;;;;;;4995605;28;20493;-69
2022/01/20 09:48:35;;;;;;;11.15;1.83;;;;;;;;;;5025870;28;20057;-70
2022/01/20 09:51:01;;;;;;;18.40;2.50;;;;;;;;;;5023051;28;20462;-69
2022/01/20 09:53:28;;;;;;;14.75;2.10;;;;;;;;;;5012093;28;20049;-69
2022/01/20 09:55:55;;;;;;;11.23;1.52;;;;;;;;;;5017154;28;20061;-69
2022/01/20 09:58:22;;;;;;;11.30;1.77;;;;;;;;;;5015311;28;20624;-69
2022/01/20 10:00:51;;;;;;;7.68;1.60;;;;;;;;;;5021204;28;20053;-69
2022/01/20 10:03:17;;;;;;;;;;;;;;;;;;5011913;28;20410;-69
2022/01/20 10:05:48;;;;;;;12.52;1.80;;;;;;;;;;5019228;28;19925;-69
2022/01/20 10:08:22;;;;;;;14.73;1.75;;;;;;;;;;5013099;28;20049;-69
2022/01/20 10:10:50;;;;;;;14.65;1.85;;;;;;;;;;5013950;28;20061;-69
2022/01/20 10:13:19;;;;;;;19.90;2.65;;;;;;;;;;5023263;28;20049;-69
2022/01/20 10:16:06;;;;;;;12.15;1.85;;;;;;;;;;5015977;28;20053;-69
2022/01/20 10:18:33;;;;;;;11.55;1.83;;;;;;;;;;5006322;28;20152;-69
2022/01/20 10:21:02;;;;;;;13.27;2.25;;;;;;;;;;5015801;28;20057;-69
2022/01/20 10:23:32;;;;;;;14.88;1.98;;;;;;;;;;5023705;28;20051;-69
2022/01/20 10:26:03;;;;;;;20.65;2.55;;;;;;;;;;5003616;28;20041;-69
2022/01/20 10:28:29;;;;;;;16.05;2.15;;;;;;;;;;5011554;28;20063;-69
2022/01/20 10:30:56;;;;;;;20.20;2.50;;;;;;;;;;5019164;28;20056;-70
2022/01/20 10:33:24;;;;;;;15.25;2.20;;;;;;;;;;5006923;28;20060;-70
2022/01/20 10:35:51;;;;;;;11.65;1.45;;;;;;;;;;5022875;28;20057;-69
2022/01/20 10:38:19;;;;;;;16.88;2.28;;;;;;;;;;5013704;28;20550;-69
2022/01/20 10:40:54;;;;;;;18.60;2.45;;;;;;;;;;5022163;28;20414;-69
2022/01/20 10:43:25;;;;;;;21.60;1.92;;;;;;;;;;5016669;28;20521;-70
2022/01/20 10:46:05;;;;;;;17.75;2.65;;;;;;;;;;5015447;28;20041;-69
2022/01/20 10:48:31;;;;;;;17.67;2.00;;;;;;;;;;5019647;28;20046;-70
2022/01/20 10:50:58;;;;;;;22.60;2.78;;;;;;;;;;5010537;28;20070;-69
2022/01/20 10:53:24;;;;;;;17.15;2.20;;;;;;;;;;5020298;28;20038;-70
2022/01/20 10:55:51;;;;;;;12.07;3.20;;;;;;;;;;5008549;28;20049;-69
2022/01/20 10:58:22;;;;;;;17.70;1.95;;;;;;;;;;5014802;28;20049;-69
2022/01/20 11:00:50;;;;;;;17.55;2.55;;;;;;;;;;5008967;28;20053;-69
2022/01/20 11:03:17;;;;;;;12.50;1.60;;;;;;;;;;5018913;28;20099;-69
2022/01/20 11:05:48;;;;;;;16.92;2.92;;;;;;;;;;5021488;28;20060;-69
2022/01/20 11:08:15;;;;;;;17.50;2.40;;;;;;;;;;5016325;28;20049;-70
2022/01/20 11:10:42;;;;;;;12.32;1.95;;;;;;;;;;5022420;28;20482;-70
2022/01/20 11:13:12;;;;;;;14.63;2.20;;;;;;;;;;5008216;28;20056;-69
2022/01/20 11:15:40;;;;;;;19.15;2.22;;;;;;;;;;5017178;28;20049;-69
2022/01/20 11:18:09;;;;;;;11.88;2.33;;;;;;;;;;5016652;28;20049;-70
2022/01/20 11:20:35;;;;;;;;;;;;;;;;;;5021623;28;20060;-69
2022/01/20 11:23:04;;;;;;;12.07;1.80;;;;;;;;;;5020025;28;19932;-70
2022/01/20 11:25:34;;;;;;;16.83;1.80;;;;;;;;;;5014617;28;20068;-70
2022/01/20 11:28:15;;;;;;;9.05;1.30;;;;;;;;;;5014305;28;20037;-69
2022/01/20 11:30:52;;;;;;;22.05;2.53;;;;;;;;;;5009299;28;20048;-69
2022/01/20 11:33:20;;;;;;;10.40;2.10;;;;;;;;;;5023193;28;20052;-69
2022/01/20 11:35:54;;;;;;;14.95;1.83;;;;;;;;;;5021063;28;20045;-68
2022/01/20 11:38:21;;;;;;;12.15;1.60;;;;;;;;;;5024005;28;20406;-69
2022/01/20 11:40:59;;;;;;;10.65;2.38;;;;;;;;;;5017734;28;20049;-70
2022/01/20 11:43:46;;;;;;;11.23;1.90;;;;;;;;;;5021631;28;20045;-71
2022/01/20 11:46:14;;;;;;;7.60;1.60;;;;;;;;;;5028123;28;20490;-69
2022/01/20 11:48:59;;;;;;;16.40;2.10;;;;;;;;;;5011988;28;20115;-69
2022/01/20 11:51:40;;;;;;;11.68;1.90;;;;;;;;;;5028466;28;20301;-70
2022/01/20 11:54:38;;;;;;;13.35;1.45;;;;;;;;;;5013208;28;20045;-69
2022/01/20 11:57:08;;;;;;;12.23;1.30;;;;;;;;;;5003653;28;20797;-69
2022/01/20 11:59:36;;;;;;;10.02;1.42;;;;;;;;;;5018893;28;20053;-69
2022/01/20 12:02:02;;;;;;;6.75;1.08;;;;;;;;;;5028844;28;20049;-70
2022/01/20 12:04:36;;;;;;;10.27;1.20;;;;;;;;;;5030287;28;20038;-69
2022/01/20 12:07:02;;;;;;;7.50;1.00;;;;;;;;;;5028279;28;20042;-71
2022/01/20 12:09:29;;;;;;;5.47;1.30;;;;;;;;;;5035183;28;20620;-69
2022/01/20 12:11:55;;;;;;;7.63;1.05;;;;;;;;;;5017354;28;20584;-69
2022/01/20 12:14:32;;;;;;;11.25;1.40;;;;;;;;;;5023131;28;20478;-70
2022/01/20 12:17:02;;;;;;;6.35;1.27;;;;;;;;;;5019596;28;20045;-70
2022/01/20 12:19:29;;;;;;;13.23;1.15;;;;;;;;;;5022434;28;20060;-71
2022/01/20 12:21:55;;;;;;;8.10;0.88;;;;;;;;;;5017379;28;20359;-70
2022/01/20 12:24:22;;;;;;;4.25;0.80;;;;;;;;;;5016324;28;20494;-70
2022/01/20 12:26:48;;;;;;;4.15;0.98;;;;;;;;;;5026193;28;20053;-70
2022/01/20 12:29:14;;;;;;;4.03;0.70;;;;;;;;;;5017011;28;20061;-70
2022/01/20 12:31:45;;;;;;;6.63;0.80;;;;;;;;;;5025163;28;20759;-69
2022/01/20 12:34:12;;;;;;;7.82;1.00;;;;;;;;;;5011731;28;20129;-69
2022/01/20 12:36:39;;;;;;;10.95;1.45;;;;;;;;;;5020651;28;20045;-70
2022/01/20 12:39:06;;;;;;;9.75;1.33;;;;;;;;;;5009017;28;20045;-70
2022/01/20 12:41:32;;;;;;;14.55;1.23;;;;;;;;;;5016746;28;20049;-69
2022/01/20 12:44:06;;;;;;;5.57;0.88;;;;;;;;;;5028098;28;20057;-70
2022/01/20 12:46:38;;;;;;;8.68;1.65;;;;;;;;;;5016578;28;20053;-71
2022/01/20 12:49:06;;;;;;;7.78;1.55;;;;;;;;;;5026120;28;20057;-70
2022/01/20 12:51:36;;;;;;;17.65;2.15;;;;;;;;;;5017489;28;20052;-70
2022/01/20 12:54:05;;;;;;;13.57;1.48;;;;;;;;;;5026769;28;20053;-70
2022/01/20 12:56:36;;;;;;;16.73;2.17;;;;;;;;;;5013134;28;20486;-70
2022/01/20 12:59:03;;;;;;;14.20;2.35;;;;;;;;;;5026135;28;20059;-70
2022/01/20 13:01:49;;;;;;;19.98;1.83;;;;;;;;;;5018280;28;20353;-70
2022/01/20 13:04:21;;;;;;;15.32;1.98;;;;;;;;;;5014261;28;20053;-70
2022/01/20 13:06:57;;;;;;;13.13;1.95;;;;;;;;;;5021440;28;20136;-70
2022/01/20 13:09:25;;;;;;;8.50;1.20;;;;;;;;;;4998791;28;20069;-70
2022/01/20 13:11:55;;;;;;;;;;;;;;;;;;5024239;28;20446;-71
2022/01/20 13:14:37;;;;;;;10.02;1.63;;;;;;;;;;5021364;28;19925;-70
2022/01/20 13:17:04;;;;;;;14.10;2.00;;;;;;;;;;5033702;28;20129;-70
2022/01/20 13:19:45;;;;;;;13.82;1.80;;;;;;;;;;5015898;28;20056;-70
2022/01/20 13:22:26;;;;;;;10.27;1.38;;;;;;;;;;5025419;28;20159;-70
2022/01/20 13:24:54;;;;;;;13.57;2.67;;;;;;;;;;5021114;28;20060;-71
2022/01/20 13:27:20;;;;;;;11.98;2.45;;;;;;;;;;5013261;28;20040;-70
2022/01/20 13:29:49;;;;;;;11.02;1.63;;;;;;;;;;4991972;28;21406;-70
2022/01/20 13:32:16;;;;;;;14.02;2.70;;;;;;;;;;5011882;28;20060;-70
2022/01/20 13:34:55;;;;;;;13.50;2.25;;;;;;;;;;5024211;28;20045;-70
2022/01/20 13:37:22;;;;;;;11.45;1.52;;;;;;;;;;5016028;28;20837;-71
2022/01/20 13:39:50;;;;;;;13.07;1.60;;;;;;;;;;5019018;28;20517;-70
2022/01/20 13:42:46;;;;;;;12.88;2.78;;;;;;;;;;5035903;28;20149;-71
2022/01/20 13:45:14;;;;;;;14.32;2.22;;;;;;;;;;5014089;28;20045;-71
2022/01/20 13:47:51;;;;;;;16.23;2.40;;;;;;;;;;5004458;28;20045;-71
2022/01/20 13:50:22;;;;;;;15.27;2.17;;;;;;;;;;5019739;28;20045;-70
2022/01/20 13:52:49;;;;;;;14.93;1.83;;;;;;;;;;5021825;28;20492;-71
2022/01/20 13:55:17;;;;;;;15.43;1.92;;;;;;;;;;4997897;28;20053;-71
2022/01/20 13:57:43;;;;;;;11.75;1.83;;;;;;;;;;5017198;28;20075;-71
2022/01/20 14:00:12;;;;;;;11.05;1.50;;;;;;;;;;5011706;28;20419;-70
2022/01/20 14:02:38;;;;;;;21.77;3.03;;;;;;;;;;5000826;28;20145;-71
2022/01/20 14:05:05;;;;;;;16.33;1.70;;;;;;;;;;5026226;28;20055;-70
2022/01/20 14:07:32;;;;;;;13.50;2.08;;;;;;;;;;5010837;28;20076;-70
2022/01/20 14:09:59;;;;;;;11.15;1.98;;;;;;;;;;5023013;28;20181;-70
2022/01/20 14:12:25;;;;;;;15.07;1.77;;;;;;;;;;5003586;28;20368;-71
2022/01/20 14:14:52;;;;;;;10.10;1.52;;;;;;;;;;5021369;28;20061;-70
2022/01/20 14:17:19;;;;;;;26.52;2.25;;;;;;;;;;5020908;28;20068;-70
2022/01/20 14:19:48;;;;;;;16.97;1.80;;;;;;;;;;5018655;28;20071;-70
2022/01/20 14:22:14;;;;;;;11.77;1.50;;;;;;;;;;5020365;28;20068;-70
2022/01/20 14:24:40;;;;;;;12.10;1.88;;;;;;;;;;5014424;28;20049;-70
2022/01/20 14:27:14;;;;;;;15.00;1.88;;;;;;;;;;4998489;28;20142;-70
2022/01/20 14:29:42;;;;;;;12.85;2.03;;;;;;;;;;4998272;28;20049;-70
2022/01/20 14:32:10;;;;;;;15.90;1.80;;;;;;;;;;5000379;28;20156;-70
2022/01/20 14:34:38;;;;;;;12.00;1.98;;;;;;;;;;5025124;28;20324;-70
2022/01/20 14:37:06;;;;;;;18.08;2.03;;;;;;;;;;5012896;28;20346;-70
2022/01/20 14:39:32;;;;;;;13.88;1.65;;;;;;;;;;5019255;28;20052;-70
2022/01/20 14:42:01;;;;;;;13.57;1.98;;;;;;;;;;5010746;28;20406;-70
2022/01/20 14:44:27;;;;;;;;;;;;;;;;;;5025011;28;20060;-70
2022/01/20 14:46:54;;;;;;;14.70;1.77;;;;;;;;;;5010393;28;19925;-70
2022/01/20 14:49:20;;;;;;;11.85;1.85;;;;;;;;;;5022615;28;20048;-70
2022/01/20 14:51:48;;;;;;;15.27;2.65;;;;;;;;;;5012932;28;20050;-70
2022/01/20 14:54:15;;;;;;;25.73;2.25;;;;;;;;;;5011092;28;20045;-70
2022/01/20 14:56:42;;;;;;;13.70;2.38;;;;;;;;;;5019901;28;20052;-70
2022/01/20 14:59:10;;;;;;;19.30;2.47;;;;;;;;;;5014230;28;20111;-70
2022/01/20 15:01:37;;;;;;;16.15;2.47;;;;;;;;;;5019076;28;20107;-69
2022/01/20 15:04:04;;;;;;;13.05;2.33;;;;;;;;;;5009632;28;20076;-70
2022/01/20 15:06:31;;;;;;;14.23;1.67;;;;;;;;;;5015413;28;20480;-70
2022/01/20 15:08:58;;;;;;;13.57;2.38;;;;;;;;;;5006033;28;20493;-70
2022/01/20 15:11:25;;;;;;;18.40;2.13;;;;;;;;;;5019812;28;20057;-70
2022/01/20 15:13:51;;;;;;;18.13;2.13;;;;;;;;;;5024183;28;20053;-70
2022/01/20 15:16:30;;;;;;;15.70;2.05;;;;;;;;;;5016199;28;20049;-70
2022/01/20 15:18:56;;;;;;;;;;;;;;;;;;5021899;28;20421;-70
2022/01/20 15:21:24;;;;;;;13.32;1.73;;;;;;;;;;5010747;28;19925;-70
2022/01/20 15:23:51;;;;;;;7.73;1.27;;;;;;;;;;5005888;28;20068;-70
2022/01/20 15:26:18;;;;;;;17.90;2.03;;;;;;;;;;5028273;28;20386;-70
2022/01/20 15:28:47;;;;;;;8.68;1.67;;;;;;;;;;5018520;28;20677;-70
2022/01/20 15:31:14;;;;;;;15.07;1.70;;;;;;;;;;5031795;28;20493;-72
2022/01/20 15:33:41;;;;;;;10.68;1.40;;;;;;;;;;5012525;28;20339;-72
2022/01/20 15:36:08;;;;;;;10.07;1.73;;;;;;;;;;5022525;28;20053;-71
2022/01/20 15:38:34;;;;;;;13.35;1.95;;;;;;;;;;5016288;28;20056;-71